createdAt,value
2024-04-24T00:01:43.744Z,11.65
2024-04-24T00:04:13.723Z,10.82
2024-04-24T00:06:46.088Z,8.75
2024-04-24T00:09:16.095Z,9.90
2024-04-24T00:11:46.003Z,10.75
2024-04-24T00:14:15.961Z,10.35
2024-04-24T00:16:45.866Z,11.13
2024-04-24T00:19:15.623Z,11.02
2024-04-24T00:21:48.193Z,10.02
2024-04-24T00:24:18.525Z,10.13
2024-04-24T00:26:48.414Z,13.25
2024-04-24T00:29:18.417Z,9.98
2024-04-24T00:31:48.281Z,11.27
2024-04-24T00:34:18.047Z,10.23
2024-04-24T00:36:50.676Z,10.70
2024-04-24T00:39:20.421Z,9.70
2024-04-24T00:41:50.192Z,10.52
2024-04-24T00:44:20.147Z,10.60
2024-04-24T00:46:50.713Z,9.77
2024-04-24T00:49:21.424Z,9.23
2024-04-24T00:51:54.708Z,9.80
2024-04-24T00:54:26.364Z,10.27
2024-04-24T00:56:56.321Z,10.85
2024-04-24T00:59:26.867Z,11.30
2024-04-24T01:01:57.069Z,9.05
2024-04-24T01:04:27.215Z,10.75
2024-04-24T01:06:59.701Z,9.43
2024-04-24T01:09:29.507Z,12.13
2024-04-24T01:11:59.311Z,10.40
2024-04-24T01:14:29.213Z,11.70
2024-04-24T01:16:59.801Z,10.15
2024-04-24T01:19:47.846Z,11.32
2024-04-24T01:22:42.189Z,8.88
2024-04-24T01:25:18.770Z,9.20
2024-04-24T01:27:51.571Z,9.05
2024-04-24T01:30:21.572Z,9.52
2024-04-24T01:32:51.627Z,10.43
2024-04-24T01:35:21.534Z,10.30
2024-04-24T01:37:51.373Z,10.30
2024-04-24T01:40:21.212Z,9.50
2024-04-24T01:42:54.038Z,9.15
2024-04-24T01:45:23.904Z,8.43
2024-04-24T01:47:53.870Z,8.73
2024-04-24T01:50:23.896Z,12.13
2024-04-24T01:52:53.729Z,10.55
2024-04-24T01:55:23.539Z,8.80
2024-04-24T01:57:56.008Z,10.30
2024-04-24T02:00:25.810Z,10.75
2024-04-24T02:02:53.238Z,10.23
2024-04-24T02:05:23.344Z,9.70
2024-04-24T02:07:53.267Z,10.73
2024-04-24T02:10:23.110Z,11.38
2024-04-24T02:12:55.683Z,10.02
2024-04-24T02:15:25.555Z,9.70
2024-04-24T02:17:55.395Z,10.98
2024-04-24T02:20:25.278Z,10.52
2024-04-24T02:22:55.210Z,11.05
2024-04-24T02:25:38.025Z,10.25
2024-04-24T02:28:12.438Z,11.25
2024-04-24T02:30:42.266Z,10.15
2024-04-24T02:33:12.235Z,11.15
2024-04-24T02:35:42.180Z,10.25
2024-04-24T02:38:12.177Z,10.43
2024-04-24T02:40:42.212Z,11.48
2024-04-24T02:43:14.701Z,12.15
2024-04-24T02:45:44.635Z,11.55
2024-04-24T02:48:14.598Z,12.48
2024-04-24T02:50:41.848Z,10.48
2024-04-24T02:53:11.638Z,10.50
2024-04-24T02:55:41.450Z,13.90
2024-04-24T02:58:11.200Z,10.73
2024-04-24T03:00:43.600Z,11.45
2024-04-24T03:03:13.447Z,9.55
2024-04-24T03:05:43.264Z,9.23
2024-04-24T03:08:13.091Z,10.23
2024-04-24T03:10:42.849Z,10.88
2024-04-24T03:13:12.657Z,10.90
2024-04-24T03:15:45.068Z,9.75
2024-04-24T03:18:14.928Z,10.88
2024-04-24T03:20:44.816Z,11.95
2024-04-24T03:23:14.644Z,10.00
2024-04-24T03:25:44.505Z,12.65
2024-04-24T03:28:14.324Z,9.70
2024-04-24T03:30:46.840Z,11.07
2024-04-24T03:33:16.708Z,11.25
2024-04-24T03:35:46.589Z,12.32
2024-04-24T03:38:16.671Z,11.48
2024-04-24T03:40:46.576Z,11.13
2024-04-24T03:43:16.483Z,10.85
2024-04-24T03:45:48.961Z,9.70
2024-04-24T03:48:16.293Z,10.93
2024-04-24T03:50:46.113Z,10.40
2024-04-24T03:53:16.004Z,10.07
2024-04-24T03:55:45.842Z,14.18
2024-04-24T03:58:15.735Z,9.13
2024-04-24T04:00:48.559Z,10.93
2024-04-24T04:03:18.426Z,8.07
2024-04-24T04:05:48.204Z,8.75
2024-04-24T04:08:18.123Z,10.25
2024-04-24T04:10:47.962Z,9.15
2024-04-24T04:13:17.879Z,9.85
2024-04-24T04:15:50.228Z,10.57
2024-04-24T04:18:20.080Z,9.85
2024-04-24T04:20:49.908Z,13.82
2024-04-24T04:23:19.728Z,10.77
2024-04-24T04:25:49.544Z,8.95
2024-04-24T04:28:19.337Z,9.93
2024-04-24T04:30:54.961Z,10.02
2024-04-24T04:33:24.796Z,12.13
2024-04-24T04:35:54.774Z,8.63
2024-04-24T04:38:24.640Z,11.27
2024-04-24T04:40:54.579Z,11.15
2024-04-24T04:43:24.555Z,10.95
2024-04-24T04:45:56.998Z,9.20
2024-04-24T04:48:27.041Z,9.45
2024-04-24T04:50:56.938Z,10.95
2024-04-24T04:53:26.895Z,9.25
2024-04-24T04:55:56.699Z,11.85
2024-04-24T04:58:26.651Z,11.05
2024-04-24T05:00:59.146Z,8.52
2024-04-24T05:03:28.988Z,9.25
2024-04-24T05:06:00.506Z,11.32
2024-04-24T05:08:30.380Z,10.07
2024-04-24T05:11:00.439Z,7.22
2024-04-24T05:13:30.300Z,8.35
2024-04-24T05:16:03.154Z,7.63
2024-04-24T05:18:33.118Z,6.70
2024-04-24T05:21:03.168Z,7.43
2024-04-24T05:23:34.648Z,8.85
2024-04-24T05:26:27.003Z,7.78
2024-04-24T05:29:07.941Z,7.82
2024-04-24T05:31:41.298Z,12.70
2024-04-24T05:34:11.136Z,6.50
2024-04-24T05:36:41.028Z,5.55
2024-04-24T05:39:10.939Z,5.60
2024-04-24T05:41:40.748Z,4.85
2024-04-24T05:44:10.614Z,6.22
2024-04-24T05:46:43.219Z,6.50
2024-04-24T05:49:13.024Z,6.72
2024-04-24T05:51:43.058Z,5.70
2024-04-24T05:54:12.947Z,9.63
2024-04-24T05:56:42.695Z,6.68
2024-04-24T05:59:12.652Z,6.93
2024-04-24T06:01:45.047Z,5.55
2024-04-24T06:04:14.834Z,6.30
2024-04-24T06:06:44.603Z,5.78
2024-04-24T06:09:14.388Z,7.07
2024-04-24T06:11:44.275Z,7.57
2024-04-24T06:14:14.228Z,8.10
2024-04-24T06:16:46.661Z,5.07
2024-04-24T06:19:16.474Z,5.15
2024-04-24T06:21:46.281Z,6.05
2024-04-24T06:24:16.271Z,5.93
2024-04-24T06:26:46.630Z,4.78
2024-04-24T06:29:16.592Z,7.43
2024-04-24T06:31:49.179Z,4.28
2024-04-24T06:34:19.018Z,5.32
2024-04-24T06:36:49.480Z,5.47
2024-04-24T06:39:19.296Z,4.32
2024-04-24T06:41:49.386Z,6.45
2024-04-24T06:44:19.250Z,9.82
2024-04-24T06:46:51.753Z,5.45
2024-04-24T06:49:21.545Z,6.40
2024-04-24T06:51:52.065Z,4.97
2024-04-24T06:54:21.913Z,4.85
2024-04-24T06:56:51.729Z,31.63
2024-04-24T06:59:21.670Z,7.65
2024-04-24T07:01:54.279Z,7.25
2024-04-24T07:04:25.483Z,4.50
2024-04-24T07:06:55.269Z,4.55
2024-04-24T07:09:25.190Z,5.15
2024-04-24T07:11:55.239Z,5.68
2024-04-24T07:14:25.242Z,5.88
2024-04-24T07:16:57.736Z,15.48
2024-04-24T07:19:27.553Z,8.23
2024-04-24T07:21:57.304Z,5.53
2024-04-24T07:24:27.174Z,4.28
2024-04-24T07:26:56.973Z,5.78
2024-04-24T07:29:26.875Z,9.15
2024-04-24T07:31:59.610Z,4.10
2024-04-24T07:34:29.456Z,4.45
2024-04-24T07:36:59.314Z,5.25
2024-04-24T07:39:29.106Z,5.13
2024-04-24T07:41:58.859Z,4.22
2024-04-24T07:44:28.713Z,5.47
2024-04-24T07:47:04.192Z,4.97
2024-04-24T07:49:34.702Z,5.88
2024-04-24T07:52:05.246Z,6.32
2024-04-24T07:54:36.582Z,4.47
2024-04-24T07:57:06.622Z,3.65
2024-04-24T07:59:36.556Z,4.53
2024-04-24T08:02:09.335Z,5.45
2024-04-24T08:04:39.231Z,3.85
2024-04-24T08:07:09.055Z,5.70
2024-04-24T08:09:38.814Z,5.15
2024-04-24T08:12:10.518Z,7.90
2024-04-24T08:14:38.183Z,6.72
2024-04-24T08:17:10.816Z,4.63
2024-04-24T08:19:40.646Z,6.13
2024-04-24T08:22:10.595Z,8.15
2024-04-24T08:24:40.424Z,5.25
2024-04-24T08:27:10.214Z,4.93
2024-04-24T08:29:40.038Z,5.97
2024-04-24T08:32:12.683Z,6.72
2024-04-24T08:34:42.500Z,4.53
2024-04-24T08:37:12.369Z,4.57
2024-04-24T08:39:42.145Z,4.05
2024-04-24T08:42:12.945Z,5.38
2024-04-24T08:44:44.652Z,4.68
2024-04-24T08:47:20.103Z,4.78
2024-04-24T08:49:51.934Z,4.00
2024-04-24T08:52:25.616Z,4.05
2024-04-24T08:54:59.932Z,4.43
2024-04-24T08:57:31.456Z,6.05
2024-04-24T09:00:03.625Z,4.45
2024-04-24T09:02:42.172Z,3.50
2024-04-24T09:05:14.854Z,5.25
2024-04-24T09:07:46.073Z,4.30
2024-04-24T09:10:16.639Z,4.30
2024-04-24T09:12:48.317Z,5.95
2024-04-24T09:15:18.325Z,5.07
2024-04-24T09:17:50.976Z,6.55
2024-04-24T09:20:22.430Z,5.82
2024-04-24T09:22:52.306Z,5.30
2024-04-24T09:25:22.179Z,4.78
2024-04-24T09:27:52.255Z,4.35
2024-04-24T09:30:23.974Z,5.55
2024-04-24T09:32:57.555Z,5.53
2024-04-24T09:35:27.602Z,4.30
2024-04-24T09:37:57.632Z,5.82
2024-04-24T09:40:28.674Z,6.35
2024-04-24T09:42:58.780Z,5.72
2024-04-24T09:45:31.046Z,4.90
2024-04-24T09:48:03.586Z,5.10
2024-04-24T09:50:36.360Z,7.72
2024-04-24T09:53:06.473Z,10.30
2024-04-24T09:55:41.532Z,11.25
2024-04-24T09:58:12.068Z,8.18
2024-04-24T10:00:42.043Z,8.65
2024-04-24T10:03:15.735Z,7.85
2024-04-24T10:08:25.104Z,8.63
2024-04-24T10:10:58.895Z,8.45
2024-04-24T10:13:31.741Z,9.05
2024-04-24T10:16:05.907Z,9.68
2024-04-24T10:21:10.460Z,10.07
2024-04-24T10:23:42.407Z,10.15
2024-04-24T10:26:13.129Z,10.90
2024-04-24T10:28:47.198Z,16.38
2024-04-24T10:31:18.654Z,10.88
2024-04-24T10:33:52.330Z,10.30
2024-04-24T10:36:22.376Z,9.55
2024-04-24T10:38:57.768Z,10.32
2024-04-24T10:41:28.326Z,10.25
2024-04-24T10:43:59.411Z,13.18
2024-04-24T10:46:29.713Z,12.95
2024-04-24T10:49:03.166Z,10.32
2024-04-24T10:51:34.659Z,11.98
2024-04-24T10:54:15.327Z,12.63
2024-04-24T10:56:46.356Z,17.30
2024-04-24T10:59:16.586Z,13.18
2024-04-24T11:01:53.263Z,14.55
2024-04-24T11:04:28.389Z,13.85
2024-04-24T11:06:58.734Z,11.70
2024-04-24T11:09:28.974Z,14.20
2024-04-24T11:12:00.763Z,14.40
2024-04-24T11:14:41.168Z,14.75
2024-04-24T11:17:11.626Z,16.55
2024-04-24T11:19:44.056Z,16.30
2024-04-24T11:22:13.900Z,16.23
2024-04-24T11:24:44.317Z,17.95
2024-04-24T11:27:14.388Z,20.35
2024-04-24T11:29:44.303Z,19.17
2024-04-24T11:32:15.013Z,19.92
2024-04-24T11:34:47.632Z,21.63
2024-04-24T11:37:17.992Z,21.88
2024-04-24T11:39:47.885Z,20.73
2024-04-24T11:42:17.778Z,19.80
2024-04-24T11:44:47.611Z,20.05
2024-04-24T11:47:20.502Z,23.52
2024-04-24T11:49:56.306Z,22.50
2024-04-24T11:52:27.425Z,20.25
2024-04-24T11:54:57.202Z,21.50
2024-04-24T11:57:27.014Z,18.70
2024-04-24T11:59:58.905Z,20.65
2024-04-24T12:02:30.011Z,20.02
2024-04-24T12:05:06.747Z,21.00
2024-04-24T12:07:37.251Z,20.30
2024-04-24T12:10:08.320Z,21.17
2024-04-24T12:12:38.295Z,23.05
2024-04-24T12:15:08.954Z,22.00
2024-04-24T12:17:38.759Z,18.63
2024-04-24T12:20:11.854Z,18.88
2024-04-24T12:22:41.843Z,19.00
2024-04-24T12:25:11.648Z,21.77
2024-04-24T12:27:41.515Z,20.52
2024-04-24T12:30:11.931Z,18.25
2024-04-24T12:32:41.905Z,20.90
2024-04-24T12:35:14.463Z,18.95
2024-04-24T12:37:44.258Z,17.30
2024-04-24T12:40:15.481Z,17.80
2024-04-24T12:42:45.342Z,17.52
2024-04-24T12:45:15.094Z,16.38
2024-04-24T12:47:46.641Z,18.67
2024-04-24T12:50:19.505Z,19.05
2024-04-24T12:52:49.461Z,17.77
2024-04-24T12:55:19.444Z,16.05
2024-04-24T12:57:49.302Z,17.48
2024-04-24T13:00:20.510Z,15.13
2024-04-24T13:02:51.072Z,18.70
2024-04-24T13:05:23.637Z,16.20
2024-04-24T13:07:53.463Z,16.90
2024-04-24T13:10:23.288Z,20.17
2024-04-24T13:12:53.023Z,13.48
2024-04-24T13:15:22.791Z,15.82
2024-04-24T13:17:52.718Z,12.77
2024-04-24T13:20:25.292Z,14.80
2024-04-24T13:22:55.099Z,16.60
2024-04-24T13:25:25.490Z,14.45
2024-04-24T13:27:55.322Z,15.82
2024-04-24T13:30:25.128Z,13.98
2024-04-24T13:32:55.024Z,11.95
2024-04-24T13:35:27.526Z,11.85
2024-04-24T13:37:57.484Z,11.95
2024-04-24T13:40:27.375Z,13.25
2024-04-24T13:42:57.165Z,11.07
2024-04-24T13:45:26.946Z,12.52
2024-04-24T13:47:56.897Z,10.20
2024-04-24T13:50:29.579Z,11.82
2024-04-24T13:52:59.466Z,11.45
2024-04-24T13:55:29.345Z,14.05
2024-04-24T13:57:59.210Z,14.55
2024-04-24T14:00:30.652Z,11.95
2024-04-24T14:03:01.526Z,11.70
2024-04-24T14:05:34.267Z,12.40
2024-04-24T14:08:04.182Z,10.27
2024-04-24T14:10:34.006Z,11.73
2024-04-24T14:13:03.780Z,10.43
2024-04-24T14:15:33.517Z,10.60
2024-04-24T14:18:03.520Z,8.70
2024-04-24T14:20:36.065Z,11.05
2024-04-24T14:23:06.059Z,11.77
2024-04-24T14:25:36.186Z,9.25
2024-04-24T14:28:06.184Z,9.55
2024-04-24T14:30:35.998Z,8.05
2024-04-24T14:33:05.946Z,9.65
2024-04-24T14:35:38.461Z,8.02
2024-04-24T14:38:10.271Z,8.48
2024-04-24T14:40:40.244Z,8.18
2024-04-24T14:43:10.124Z,7.57
2024-04-24T14:45:39.967Z,9.25
2024-04-24T14:48:10.709Z,9.32
2024-04-24T14:50:43.430Z,8.40
2024-04-24T14:53:13.697Z,8.13
2024-04-24T14:55:43.692Z,8.80
2024-04-24T14:58:32.104Z,8.60
2024-04-24T15:01:05.660Z,7.88
2024-04-24T15:03:35.840Z,7.32
2024-04-24T15:06:08.436Z,9.50
2024-04-24T15:08:38.315Z,7.75
2024-04-24T15:11:08.241Z,7.25
2024-04-24T15:13:39.716Z,6.88
2024-04-24T15:16:10.651Z,7.97
2024-04-24T15:18:40.540Z,7.72
2024-04-24T15:21:13.005Z,9.60
2024-04-24T15:23:42.761Z,7.53
2024-04-24T15:26:16.850Z,9.05
2024-04-24T15:28:46.777Z,8.13
2024-04-24T15:31:16.659Z,8.73
2024-04-24T15:33:46.954Z,8.65
2024-04-24T15:36:19.756Z,11.93
2024-04-24T15:38:49.646Z,9.90
2024-04-24T15:41:19.960Z,10.50
2024-04-24T15:43:49.748Z,9.73
2024-04-24T15:46:19.532Z,9.55
2024-04-24T15:48:49.512Z,10.45
2024-04-24T15:51:21.976Z,11.60
2024-04-24T15:53:51.809Z,10.68
2024-04-24T15:56:21.646Z,11.18
2024-04-24T15:58:52.638Z,10.60
2024-04-24T16:01:22.467Z,11.75
2024-04-24T16:03:52.350Z,11.65
2024-04-24T16:06:28.070Z,11.57
2024-04-24T16:08:57.857Z,11.73
2024-04-24T16:11:27.683Z,11.95
2024-04-24T16:13:57.598Z,12.50
2024-04-24T16:16:27.371Z,12.15
2024-04-24T16:18:57.509Z,10.95
2024-04-24T16:21:30.415Z,9.70
2024-04-24T16:24:00.338Z,10.93
2024-04-24T16:26:30.325Z,13.05
2024-04-24T16:29:00.487Z,10.52
2024-04-24T16:31:30.385Z,11.25
2024-04-24T16:34:00.391Z,12.50
2024-04-24T16:36:32.893Z,9.05
2024-04-24T16:39:02.837Z,11.27
2024-04-24T16:41:33.029Z,11.25
2024-04-24T16:44:04.413Z,11.20
2024-04-24T16:46:34.586Z,11.48
2024-04-24T16:49:04.855Z,10.55
2024-04-24T16:51:41.822Z,11.35
2024-04-24T16:54:12.112Z,10.20
2024-04-24T16:56:42.487Z,10.15
2024-04-24T16:59:12.501Z,10.50
2024-04-24T17:01:42.685Z,10.90
2024-04-24T17:04:13.239Z,10.60
2024-04-24T17:06:46.613Z,11.65
2024-04-24T17:09:18.115Z,10.90
2024-04-24T17:11:49.255Z,10.82
2024-04-24T17:14:19.930Z,11.35
2024-04-24T17:16:50.011Z,10.18
2024-04-24T17:19:21.208Z,10.52
2024-04-24T17:21:54.847Z,9.38
2024-04-24T17:24:26.426Z,9.63
2024-04-24T17:26:57.910Z,9.82
2024-04-24T17:29:29.546Z,10.63
2024-04-24T17:32:00.512Z,10.20
2024-04-24T17:34:30.817Z,9.50
2024-04-24T17:37:07.460Z,11.07
2024-04-24T17:39:38.876Z,10.30
2024-04-24T17:42:10.062Z,10.88
2024-04-24T17:44:40.883Z,9.02
2024-04-24T17:47:16.786Z,10.52
2024-04-24T17:49:48.667Z,10.27
2024-04-24T17:52:23.941Z,9.02
2024-04-24T17:54:56.854Z,11.13
2024-04-24T17:57:40.202Z,9.90
2024-04-24T18:00:12.170Z,10.88
2024-04-24T18:02:43.651Z,9.73
2024-04-24T18:05:15.108Z,9.88
2024-04-24T18:07:49.301Z,10.40
2024-04-24T18:10:21.836Z,9.07
2024-04-24T18:12:53.105Z,9.52
2024-04-24T18:15:24.948Z,8.98
2024-04-24T18:17:56.151Z,10.85
2024-04-24T18:20:27.847Z,9.30
2024-04-24T18:23:00.044Z,8.50
2024-04-24T18:25:34.055Z,8.05
2024-04-24T18:28:05.929Z,7.53
2024-04-24T18:30:42.946Z,8.95
2024-04-24T18:33:17.459Z,8.25
2024-04-24T18:35:50.316Z,9.25
2024-04-24T18:38:26.013Z,9.52
2024-04-24T18:40:58.010Z,9.43
2024-04-24T18:43:32.452Z,9.43
2024-04-24T18:46:03.281Z,8.23
2024-04-24T18:48:36.250Z,7.20
2024-04-24T18:51:12.529Z,10.18
2024-04-24T18:53:47.572Z,8.73
2024-04-24T18:56:20.660Z,7.45
2024-04-24T18:58:53.787Z,8.07
2024-04-24T19:01:24.891Z,8.95
2024-04-24T19:03:58.855Z,9.23
2024-04-24T19:06:35.495Z,10.02
2024-04-24T19:09:11.563Z,9.50
2024-04-24T19:11:45.481Z,9.75
2024-04-24T19:14:17.341Z,8.73
2024-04-24T19:16:49.738Z,8.38
2024-04-24T19:19:21.586Z,10.27
2024-04-24T19:21:53.886Z,8.27
2024-04-24T19:24:29.029Z,9.05
2024-04-24T19:27:00.894Z,9.55
2024-04-24T19:29:33.707Z,9.48
2024-04-24T19:32:05.614Z,8.57
2024-04-24T19:34:39.328Z,10.45
2024-04-24T19:37:10.327Z,10.50
2024-04-24T19:39:43.909Z,10.43
2024-04-24T19:42:16.472Z,10.68
2024-04-24T19:44:50.228Z,11.95
2024-04-24T19:47:22.668Z,10.32
2024-04-24T19:49:53.776Z,10.05
2024-04-24T19:52:25.750Z,10.73
2024-04-24T19:54:59.437Z,11.45
2024-04-24T19:57:31.818Z,11.80
2024-04-24T20:00:06.180Z,11.65
2024-04-24T20:02:40.625Z,11.40
2024-04-24T20:05:13.892Z,11.00
2024-04-24T20:07:49.344Z,13.38
2024-04-24T20:10:24.444Z,13.18
2024-04-24T20:12:58.334Z,12.70
2024-04-24T20:15:29.193Z,13.70
2024-04-24T20:18:00.817Z,13.93
2024-04-24T20:20:32.340Z,13.95
2024-04-24T20:23:04.476Z,14.35
2024-04-24T20:25:37.792Z,13.82
2024-04-24T20:28:08.864Z,14.23
2024-04-24T20:30:38.892Z,17.30
2024-04-24T20:33:10.940Z,13.60
2024-04-24T20:38:12.504Z,14.88
2024-04-24T20:40:45.008Z,14.60
2024-04-24T20:43:14.981Z,15.10
2024-04-24T20:45:44.878Z,16.40
2024-04-24T20:48:14.776Z,15.82
2024-04-24T20:50:44.770Z,13.88
2024-04-24T20:53:14.788Z,14.45
2024-04-24T20:55:47.169Z,15.13
2024-04-24T20:58:17.052Z,13.25
2024-04-24T21:00:46.947Z,12.10
2024-04-24T21:03:17.246Z,11.40
2024-04-24T21:05:47.129Z,13.20
2024-04-24T21:08:17.215Z,12.65
2024-04-24T21:10:49.893Z,14.27
2024-04-24T21:13:21.402Z,11.63
2024-04-24T21:15:53.408Z,12.90
2024-04-24T21:18:24.993Z,12.38
2024-04-24T21:20:55.172Z,13.45
2024-04-24T21:23:25.055Z,15.77
2024-04-24T21:26:02.114Z,17.23
2024-04-24T21:28:32.005Z,16.02
2024-04-24T21:31:04.398Z,16.48
2024-04-24T21:33:34.824Z,20.23
2024-04-24T21:36:04.967Z,18.80
2024-04-24T21:38:36.093Z,18.63
2024-04-24T21:41:20.765Z,14.27
2024-04-24T21:46:21.418Z,20.20
2024-04-24T21:48:51.367Z,17.23
2024-04-24T21:51:21.223Z,19.70
2024-04-24T21:53:52.873Z,16.45
2024-04-24T21:56:26.913Z,19.02
2024-04-24T21:58:57.175Z,17.40
2024-04-24T22:01:26.951Z,18.15
2024-04-24T22:03:57.530Z,18.75
2024-04-24T22:06:29.165Z,19.17
2024-04-24T22:08:58.946Z,23.17
2024-04-24T22:11:31.490Z,20.95
2024-04-24T22:16:31.275Z,20.40
2024-04-24T22:19:01.975Z,20.85
2024-04-24T22:21:32.824Z,21.27
2024-04-24T22:24:02.743Z,21.40
2024-04-24T22:26:35.374Z,22.52
2024-04-24T22:29:05.180Z,24.60
2024-04-24T22:31:35.060Z,22.83
2024-04-24T22:34:04.830Z,20.30
2024-04-24T22:36:34.640Z,19.92
2024-04-24T22:39:04.452Z,21.08
2024-04-24T22:41:36.917Z,17.15
2024-04-24T22:44:06.907Z,18.38
2024-04-24T22:46:36.801Z,20.33
2024-04-24T22:49:06.562Z,17.83
2024-04-24T22:51:36.405Z,18.85
2024-04-24T22:54:06.227Z,15.45
2024-04-24T22:56:40.075Z,14.15
2024-04-24T22:59:09.928Z,14.45
2024-04-24T23:01:39.840Z,13.23
2024-04-24T23:04:10.566Z,13.63
2024-04-24T23:06:40.437Z,11.18
2024-04-24T23:09:10.224Z,11.40
2024-04-24T23:11:42.798Z,10.45
2024-04-24T23:14:12.970Z,9.95
2024-04-24T23:16:42.811Z,10.50
2024-04-24T23:19:10.085Z,9.55
2024-04-24T23:21:39.908Z,9.60
2024-04-24T23:24:10.056Z,11.20
2024-04-24T23:26:46.102Z,9.75
2024-04-24T23:29:16.111Z,10.27
2024-04-24T23:31:46.043Z,9.50
2024-04-24T23:34:15.840Z,9.65
2024-04-24T23:36:45.656Z,11.23
2024-04-24T23:39:15.674Z,11.07
2024-04-24T23:41:48.113Z,10.75
2024-04-24T23:44:17.912Z,12.32
2024-04-24T23:46:48.886Z,11.55
2024-04-24T23:49:18.919Z,10.48
2024-04-24T23:51:48.767Z,11.00
2024-04-24T23:54:18.610Z,11.65
2024-04-24T23:56:50.989Z,13.25
2024-04-24T23:59:20.780Z,13.68
